Wetterdaten: Freitag, 12.12.2014
Datum Zeit Temp. A. Feuchte A. Luftdruck Regen Wind Richtung Richtung Sonnenschein ET UV Solar Taupunkt Windchill Windben Empfang
12.12.2014 00:00 6,1 C 56 % 1015,7 hPa 0,0 l/m 4,7 km/h (1 Bft) W 271 0 min 0,000 mm 0,0 UV-I 0 W/m -2,0 C 6,1 C 7,9 km/h (2 Bft) 0,00 %
12.12.2014 00:15 6,1 C 55 % 1015,5 hPa 0,0 l/m 0,4 km/h (0 Bft) O-NO 68 0 min 0,000 mm 0,0 UV-I 0 W/m -2,2 C 6,1 C 4,0 km/h (1 Bft) 0,00 %
12.12.2014 00:30 6,3 C 55 % 1015,5 hPa 0,0 l/m 7,9 km/h (2 Bft) W-NW 285 0 min 0,000 mm 0,0 UV-I 0 W/m -2,1 C 5,0 C 11,9 km/h (2 Bft) 0,00 %
12.12.2014 00:45 6,5 C 53 % 1015,5 hPa 0,0 l/m 6,8 km/h (2 Bft) NW 319 0 min 0,000 mm 0,0 UV-I 0 W/m -2,4 C 6,2 C 7,9 km/h (2 Bft) 0,00 %
12.12.2014 01:00 6,7 C 53 % 1015,5 hPa 0,0 l/m 9,7 km/h (2 Bft) N-NW 336 0 min 0,000 mm 0,0 UV-I 0 W/m -2,2 C 4,2 C 15,8 km/h (3 Bft) 0,00 %
12.12.2014 01:15 6,9 C 53 % 1015,4 hPa 0,0 l/m 6,8 km/h (2 Bft) W-SW 258 0 min 0,000 mm 0,0 UV-I 0 W/m -2,0 C 6,6 C 11,9 km/h (2 Bft) 0,00 %
12.12.2014 01:30 7,0 C 52 % 1015,6 hPa 0,0 l/m 9,0 km/h (2 Bft) W-SW 256 0 min 0,000 mm 0,0 UV-I 0 W/m -2,2 C 5,0 C 11,9 km/h (2 Bft) 0,00 %
12.12.2014 01:45 6,9 C 52 % 1015,6 hPa 0,0 l/m 5,8 km/h (2 Bft) W-SW 255 0 min 0,000 mm 0,0 UV-I 0 W/m -2,3 C 6,9 C 7,9 km/h (2 Bft) 0,00 %
12.12.2014 02:00 6,8 C 54 % 1015,7 hPa 0,0 l/m 13,3 km/h (3 Bft) S-SW 206 0 min 0,000 mm 0,0 UV-I 0 W/m -1,8 C 2,1 C 19,8 km/h (3 Bft) 0,00 %
12.12.2014 02:15 6,7 C 54 % 1015,9 hPa 0,0 l/m 3,2 km/h (1 Bft) W-SW 256 0 min 0,000 mm 0,0 UV-I 0 W/m -1,9 C 6,7 C 7,9 km/h (2 Bft) 0,00 %
12.12.2014 02:30 6,6 C 55 % 1015,9 hPa 0,0 l/m 1,4 km/h (1 Bft) S-SW 192 0 min 0,000 mm 0,0 UV-I 0 W/m -1,8 C 6,6 C 4,0 km/h (1 Bft) 0,00 %
12.12.2014 02:45 6,4 C 55 % 1016,1 hPa 0,0 l/m 7,9 km/h (2 Bft) S-SW 210 0 min 0,000 mm 0,0 UV-I 0 W/m -2,0 C 5,2 C 11,9 km/h (2 Bft) 0,00 %
12.12.2014 03:00 6,5 C 55 % 1016,2 hPa 0,0 l/m 4,3 km/h (1 Bft) W-SW 253 0 min 0,000 mm 0,0 UV-I 0 W/m -1,9 C 6,5 C 7,9 km/h (2 Bft) 0,00 %
12.12.2014 03:15 6,3 C 57 % 1016,1 hPa 0,0 l/m 4,0 km/h (1 Bft) S-SW 205 0 min 0,000 mm 0,0 UV-I 0 W/m -1,6 C 6,3 C 7,9 km/h (2 Bft) 0,00 %
12.12.2014 03:30 6,1 C 58 % 1016,1 hPa 0,0 l/m 4,0 km/h (1 Bft) W-SW 251 0 min 0,000 mm 0,0 UV-I 0 W/m -1,5 C 6,1 C 7,9 km/h (2 Bft) 0,00 %
12.12.2014 03:45 5,7 C 60 % 1016,2 hPa 0,0 l/m 0,0 km/h (0 Bft) S 175 0 min 0,000 mm 0,0 UV-I 0 W/m -1,4 C 5,7 C 0,0 km/h (0 Bft) 0,00 %
12.12.2014 04:00 5,3 C 62 % 1016,2 hPa 0,0 l/m 0,0 km/h (0 Bft) SW 231 0 min 0,000 mm 0,0 UV-I 0 W/m -1,4 C 5,3 C 0,0 km/h (0 Bft) 0,00 %
12.12.2014 04:15 5,1 C 62 % 1016,2 hPa 0,0 l/m 0,0 km/h (0 Bft) W-SW 255 0 min 0,000 mm 0,0 UV-I 0 W/m -1,6 C 5,1 C 0,0 km/h (0 Bft) 0,00 %
12.12.2014 04:30 5,1 C 61 % 1015,8 hPa 0,0 l/m 0,0 km/h (0 Bft) S-SW 206 0 min 0,000 mm 0,0 UV-I 0 W/m -1,8 C 5,1 C 0,0 km/h (0 Bft) 0,00 %
12.12.2014 04:45 5,3 C 61 % 1015,8 hPa 0,0 l/m 0,0 km/h (0 Bft) SW 229 0 min 0,000 mm 0,0 UV-I 0 W/m -1,6 C 5,3 C 0,0 km/h (0 Bft) 0,00 %
12.12.2014 05:00 5,3 C 61 % 1015,7 hPa 0,0 l/m 0,0 km/h (0 Bft) S-SW 193 0 min 0,000 mm 0,0 UV-I 0 W/m -1,6 C 5,3 C 0,0 km/h (0 Bft) 0,00 %
12.12.2014 05:15 5,2 C 61 % 1015,8 hPa 0,0 l/m 0,0 km/h (0 Bft) S-SW 196 0 min 0,000 mm 0,0 UV-I 0 W/m -1,7 C 5,2 C 0,0 km/h (0 Bft) 0,00 %
12.12.2014 05:30 5,3 C 61 % 1015,6 hPa 0,0 l/m 0,0 km/h (0 Bft) S-SW 203 0 min 0,000 mm 0,0 UV-I 0 W/m -1,6 C 5,3 C 0,0 km/h (0 Bft) 0,00 %
12.12.2014 05:45 5,2 C 61 % 1015,8 hPa 0,0 l/m 0,0 km/h (0 Bft) SW 224 0 min 0,000 mm 0,0 UV-I 0 W/m -1,7 C 5,2 C 0,0 km/h (0 Bft) 0,00 %
12.12.2014 06:00 5,2 C 61 % 1015,8 hPa 0,0 l/m 0,0 km/h (0 Bft) S-SW 206 0 min 0,000 mm 0,0 UV-I 0 W/m -1,7 C 5,2 C 0,0 km/h (0 Bft) 0,00 %
12.12.2014 06:15 5,1 C 61 % 1015,8 hPa 0,0 l/m 0,0 km/h (0 Bft) W-SW 256 0 min 0,000 mm 0,0 UV-I 0 W/m -1,8 C 5,1 C 0,0 km/h (0 Bft) 0,00 %
12.12.2014 06:30 5,0 C 60 % 1015,3 hPa 0,0 l/m 1,8 km/h (1 Bft) W-SW 256 0 min 0,000 mm 0,0 UV-I 0 W/m -2,1 C 5,0 C 7,9 km/h (2 Bft) 0,00 %
12.12.2014 06:45 4,8 C 60 % 1015,2 hPa 0,0 l/m 1,4 km/h (1 Bft) S-SW 212 0 min 0,000 mm 0,0 UV-I 0 W/m -2,3 C 4,8 C 4,0 km/h (1 Bft) 0,00 %
12.12.2014 07:00 4,7 C 60 % 1015,1 hPa 0,0 l/m 0,0 km/h (0 Bft) S 172 0 min 0,000 mm 0,0 UV-I 0 W/m -2,4 C 4,7 C 0,0 km/h (0 Bft) 0,00 %
12.12.2014 07:15 4,1 C 63 % 1015,1 hPa 0,0 l/m 0,0 km/h (0 Bft) SW 226 0 min 0,000 mm 0,0 UV-I 0 W/m -2,3 C 4,1 C 0,0 km/h (0 Bft) 0,00 %
12.12.2014 07:30 3,7 C 63 % 1015,0 hPa 0,0 l/m 0,0 km/h (0 Bft) O-SO 113 0 min 0,000 mm 0,0 UV-I 0 W/m -2,7 C 3,7 C 0,0 km/h (0 Bft) 0,00 %
12.12.2014 07:45 3,5 C 65 % 1015,0 hPa 0,0 l/m 0,0 km/h (0 Bft) W 274 0 min 0,000 mm 0,0 UV-I 0 W/m -2,4 C 3,5 C 0,0 km/h (0 Bft) 0,00 %
12.12.2014 08:00 3,7 C 63 % 1014,8 hPa 0,0 l/m 0,0 km/h (0 Bft) W-SW 251 0 min 0,000 mm 0,0 UV-I 3 W/m -2,7 C 3,7 C 0,0 km/h (0 Bft) 0,00 %
12.12.2014 08:15 4,3 C 60 % 1014,8 hPa 0,0 l/m 0,0 km/h (0 Bft) O-SO 119 0 min 0,000 mm 0,0 UV-I 19 W/m -2,8 C 4,3 C 0,0 km/h (0 Bft) 0,00 %
12.12.2014 08:30 4,6 C 59 % 1014,6 hPa 0,0 l/m 0,0 km/h (0 Bft) W-SW 256 0 min 0,000 mm 1,0 UV-I 34 W/m -2,7 C 4,6 C 0,0 km/h (0 Bft) 0,00 %
12.12.2014 08:45 5,0 C 55 % 1014,1 hPa 0,0 l/m 0,0 km/h (0 Bft) W-SW 252 0 min 0,000 mm 1,0 UV-I 36 W/m -3,3 C 5,0 C 0,0 km/h (0 Bft) 0,00 %
12.12.2014 09:00 6,1 C 50 % 1014,0 hPa 0,0 l/m 0,0 km/h (0 Bft) S-SW 206 0 min 0,000 mm 1,0 UV-I 51 W/m -3,5 C 6,1 C 0,0 km/h (0 Bft) 0,00 %
12.12.2014 09:15 7,4 C 51 % 1013,6 hPa 0,0 l/m 0,0 km/h (0 Bft) SW 219 0 min 0,000 mm 1,0 UV-I 61 W/m -2,1 C 7,4 C 0,0 km/h (0 Bft) 0,00 %
12.12.2014 09:30 7,8 C 49 % 1013,1 hPa 0,0 l/m 0,0 km/h (0 Bft) SW 231 0 min 0,000 mm 1,0 UV-I 71 W/m -2,2 C 7,8 C 0,0 km/h (0 Bft) 0,00 %
12.12.2014 09:45 8,9 C 46 % 1012,9 hPa 0,0 l/m 0,0 km/h (0 Bft) SO 137 0 min 0,000 mm 1,0 UV-I 81 W/m -2,1 C 8,9 C 0,0 km/h (0 Bft) 0,00 %
12.12.2014 10:00 8,3 C 49 % 1012,7 hPa 0,0 l/m 0,4 km/h (0 Bft) SO 144 0 min 0,000 mm 1,0 UV-I 89 W/m -1,8 C 8,3 C 4,0 km/h (1 Bft) 0,00 %
12.12.2014 10:15 8,6 C 45 % 1012,4 hPa 0,0 l/m 0,0 km/h (0 Bft) SO 127 0 min 0,000 mm 1,0 UV-I 100 W/m -2,6 C 8,6 C 0,0 km/h (0 Bft) 0,00 %
12.12.2014 10:30 8,4 C 47 % 1012,0 hPa 0,0 l/m 0,0 km/h (0 Bft) SO 143 0 min 0,000 mm 1,0 UV-I 99 W/m -2,2 C 8,4 C 0,0 km/h (0 Bft) 0,00 %
12.12.2014 10:45 8,2 C 51 % 1011,5 hPa 0,0 l/m 2,9 km/h (1 Bft) O 87 0 min 0,000 mm 1,0 UV-I 87 W/m -1,3 C 8,2 C 4,0 km/h (1 Bft) 0,00 %
12.12.2014 11:00 8,1 C 49 % 1011,1 hPa 0,0 l/m 1,8 km/h (1 Bft) O-NO 74 0 min 0,000 mm 1,0 UV-I 84 W/m -2,0 C 8,1 C 4,0 km/h (1 Bft) 0,00 %
12.12.2014 11:15 7,9 C 50 % 1011,0 hPa 0,0 l/m 2,9 km/h (1 Bft) N 350 0 min 0,000 mm 1,0 UV-I 85 W/m -1,9 C 7,9 C 4,0 km/h (1 Bft) 0,00 %
12.12.2014 11:30 8,0 C 51 % 1010,7 hPa 0,0 l/m 3,2 km/h (1 Bft) SO 124 0 min 0,000 mm 1,0 UV-I 82 W/m -1,5 C 8,0 C 7,9 km/h (2 Bft) 0,00 %
12.12.2014 11:45 7,8 C 52 % 1010,4 hPa 0,0 l/m 0,0 km/h (0 Bft) O 93 0 min 0,000 mm 1,0 UV-I 78 W/m -1,4 C 7,8 C 0,0 km/h (0 Bft) 0,00 %
12.12.2014 12:00 7,9 C 52 % 1009,9 hPa 0,0 l/m 4,3 km/h (1 Bft) NO 37 0 min 0,000 mm 1,0 UV-I 69 W/m -1,3 C 7,9 C 7,9 km/h (2 Bft) 0,00 %
12.12.2014 12:15 7,9 C 52 % 1009,3 hPa 0,0 l/m 3,2 km/h (1 Bft) O 96 0 min 0,000 mm 1,0 UV-I 71 W/m -1,3 C 7,9 C 7,9 km/h (2 Bft) 0,00 %
12.12.2014 12:30 7,9 C 52 % 1009,3 hPa 0,0 l/m 0,0 km/h (0 Bft) NO 50 0 min 0,000 mm 1,0 UV-I 69 W/m -1,3 C 7,9 C 0,0 km/h (0 Bft) 0,00 %
12.12.2014 12:45 7,9 C 52 % 1009,1 hPa 0,0 l/m 0,4 km/h (0 Bft) N-NW 334 0 min 0,000 mm 1,0 UV-I 67 W/m -1,3 C 7,9 C 4,0 km/h (1 Bft) 0,00 %
12.12.2014 13:00 7,9 C 52 % 1009,1 hPa 0,0 l/m 0,0 km/h (0 Bft) SO 137 0 min 0,000 mm 1,0 UV-I 68 W/m -1,3 C 7,9 C 0,0 km/h (0 Bft) 0,00 %
12.12.2014 13:15 7,9 C 53 % 1008,9 hPa 0,0 l/m 0,0 km/h (0 Bft) N 356 0 min 0,000 mm 1,0 UV-I 72 W/m -1,1 C 7,9 C 0,0 km/h (0 Bft) 0,00 %
12.12.2014 13:30 7,7 C 54 % 1008,9 hPa 0,0 l/m 0,0 km/h (0 Bft) N 356 0 min 0,000 mm 1,0 UV-I 68 W/m -1,0 C 7,7 C 0,0 km/h (0 Bft) 0,00 %
12.12.2014 13:45 7,7 C 54 % 1009,0 hPa 0,0 l/m 0,0 km/h (0 Bft) W-NW 293 0 min 0,000 mm 1,0 UV-I 71 W/m -1,0 C 7,7 C 0,0 km/h (0 Bft) 0,00 %
12.12.2014 14:00 7,8 C 53 % 1008,4 hPa 0,0 l/m 0,0 km/h (0 Bft) W 276 0 min 0,000 mm 1,0 UV-I 80 W/m -1,2 C 7,8 C 0,0 km/h (0 Bft) 0,00 %
12.12.2014 14:15 7,8 C 53 % 1008,3 hPa 0,0 l/m 0,0 km/h (0 Bft) SW 219 0 min 0,000 mm 1,0 UV-I 78 W/m -1,2 C 7,8 C 0,0 km/h (0 Bft) 0,00 %
12.12.2014 14:30 7,8 C 53 % 1008,3 hPa 0,0 l/m 0,0 km/h (0 Bft) SW 220 0 min 0,000 mm 1,0 UV-I 79 W/m -1,2 C 7,8 C 0,0 km/h (0 Bft) 0,00 %
12.12.2014 14:45 7,6 C 53 % 1008,2 hPa 0,0 l/m 0,0 km/h (0 Bft) S-SW 211 0 min 0,000 mm 1,0 UV-I 65 W/m -1,4 C 7,6 C 0,0 km/h (0 Bft) 0,00 %
12.12.2014 15:00 7,3 C 53 % 1008,3 hPa 0,0 l/m 0,0 km/h (0 Bft) S 178 0 min 0,000 mm 1,0 UV-I 57 W/m -1,6 C 7,3 C 0,0 km/h (0 Bft) 0,00 %
12.12.2014 15:15 6,9 C 54 % 1008,2 hPa 0,0 l/m 0,0 km/h (0 Bft) S 186 0 min 0,000 mm 0,0 UV-I 49 W/m -1,8 C 6,9 C 0,0 km/h (0 Bft) 0,00 %
12.12.2014 15:30 6,6 C 59 % 1008,2 hPa 0,0 l/m 0,0 km/h (0 Bft) S-SW 205 15 min 0,000 mm 0,0 UV-I 43 W/m -0,8 C 6,6 C 0,0 km/h (0 Bft) 0,00 %
12.12.2014 15:45 6,2 C 60 % 1008,6 hPa 0,0 l/m 0,0 km/h (0 Bft) S-SW 213 15 min 0,000 mm 0,0 UV-I 25 W/m -1,0 C 6,2 C 0,0 km/h (0 Bft) 0,00 %
12.12.2014 16:00 5,6 C 64 % 1008,3 hPa 0,0 l/m 0,0 km/h (0 Bft) SO 125 0 min 0,000 mm 0,0 UV-I 4 W/m -0,7 C 5,6 C 0,0 km/h (0 Bft) 0,00 %
12.12.2014 16:15 4,9 C 66 % 1008,6 hPa 0,0 l/m 0,0 km/h (0 Bft) SW 218 0 min 0,000 mm 0,0 UV-I 0 W/m -0,9 C 4,9 C 0,0 km/h (0 Bft) 0,00 %
12.12.2014 16:30 4,1 C 69 % 1009,0 hPa 0,0 l/m 0,0 km/h (0 Bft) S-SW 212 0 min 0,000 mm 0,0 UV-I 0 W/m -1,1 C 4,1 C 0,0 km/h (0 Bft) 0,00 %
12.12.2014 16:45 3,5 C 71 % 1009,2 hPa 0,0 l/m 0,0 km/h (0 Bft) SW 230 0 min 0,000 mm 0,0 UV-I 0 W/m -1,3 C 3,5 C 0,0 km/h (0 Bft) 0,00 %
12.12.2014 17:00 3,5 C 68 % 1009,8 hPa 0,0 l/m 0,0 km/h (0 Bft) SW 224 0 min 0,000 mm 0,0 UV-I 0 W/m -1,8 C 3,5 C 0,0 km/h (0 Bft) 0,00 %
12.12.2014 17:15 3,4 C 67 % 1009,7 hPa 0,0 l/m 0,0 km/h (0 Bft) S-SW 208 0 min 0,000 mm 0,0 UV-I 0 W/m -2,1 C 3,4 C 0,0 km/h (0 Bft) 0,00 %
12.12.2014 17:30 3,6 C 66 % 1009,6 hPa 0,0 l/m 0,0 km/h (0 Bft) S-SW 208 0 min 0,000 mm 0,0 UV-I 0 W/m -2,1 C 3,6 C 0,0 km/h (0 Bft) 0,00 %
12.12.2014 17:45 3,8 C 66 % 1009,8 hPa 0,0 l/m 0,0 km/h (0 Bft) S-SW 206 0 min 0,000 mm 0,0 UV-I 0 W/m -2,0 C 3,8 C 0,0 km/h (0 Bft) 0,00 %
12.12.2014 18:00 4,2 C 65 % 1009,5 hPa 0,0 l/m 0,0 km/h (0 Bft) S 180 0 min 0,000 mm 0,0 UV-I 0 W/m -1,8 C 4,2 C 0,0 km/h (0 Bft) 0,00 %
12.12.2014 18:15 4,3 C 66 % 1009,7 hPa 0,0 l/m 0,0 km/h (0 Bft) S-SW 205 0 min 0,000 mm 0,0 UV-I 0 W/m -1,5 C 4,3 C 0,0 km/h (0 Bft) 0,00 %
12.12.2014 18:30 4,1 C 68 % 1010,0 hPa 0,0 l/m 0,0 km/h (0 Bft) S-SW 196 0 min 0,000 mm 0,0 UV-I 0 W/m -1,3 C 4,1 C 0,0 km/h (0 Bft) 0,00 %
12.12.2014 18:45 3,8 C 70 % 1009,7 hPa 0,0 l/m 0,0 km/h (0 Bft) SW 229 0 min 0,000 mm 0,0 UV-I 0 W/m -1,2 C 3,8 C 0,0 km/h (0 Bft) 0,00 %
12.12.2014 19:00 3,8 C 69 % 1010,2 hPa 0,0 l/m 0,0 km/h (0 Bft) SW 231 0 min 0,000 mm 0,0 UV-I 0 W/m -1,4 C 3,8 C 0,0 km/h (0 Bft) 0,00 %
12.12.2014 19:15 3,9 C 71 % 1010,0 hPa 0,0 l/m 0,0 km/h (0 Bft) W-NW 296 0 min 0,000 mm 0,0 UV-I 0 W/m -0,9 C 3,9 C 0,0 km/h (0 Bft) 0,00 %
12.12.2014 19:30 4,0 C 71 % 1010,5 hPa 0,0 l/m 0,0 km/h (0 Bft) W-SW 256 0 min 0,000 mm 0,0 UV-I 0 W/m -0,8 C 4,0 C 0,0 km/h (0 Bft) 0,00 %
12.12.2014 19:45 4,1 C 71 % 1010,5 hPa 0,0 l/m 0,0 km/h (0 Bft) NW 309 0 min 0,000 mm 0,0 UV-I 0 W/m -0,7 C 4,1 C 0,0 km/h (0 Bft) 0,00 %
12.12.2014 20:00 4,1 C 71 % 1010,4 hPa 0,0 l/m 0,0 km/h (0 Bft) W-SW 255 0 min 0,000 mm 0,0 UV-I 0 W/m -0,7 C 4,1 C 0,0 km/h (0 Bft) 0,00 %
12.12.2014 20:15 4,4 C 67 % 1010,1 hPa 0,0 l/m 0,0 km/h (0 Bft) S-SW 210 0 min 0,000 mm 0,0 UV-I 0 W/m -1,2 C 4,4 C 0,0 km/h (0 Bft) 0,00 %
12.12.2014 20:30 4,5 C 67 % 1009,8 hPa 0,0 l/m 0,0 km/h (0 Bft) W-SW 255 0 min 0,000 mm 0,0 UV-I 0 W/m -1,1 C 4,5 C 0,0 km/h (0 Bft) 0,00 %
12.12.2014 20:45 4,6 C 67 % 1009,8 hPa 0,0 l/m 0,0 km/h (0 Bft) S-SW 196 0 min 0,000 mm 0,0 UV-I 0 W/m -1,0 C 4,6 C 0,0 km/h (0 Bft) 0,00 %
12.12.2014 21:00 4,5 C 69 % 1009,9 hPa 0,0 l/m 0,0 km/h (0 Bft) W-SW 237 0 min 0,000 mm 0,0 UV-I 0 W/m -0,7 C 4,5 C 0,0 km/h (0 Bft) 0,00 %
12.12.2014 21:15 4,3 C 69 % 1009,8 hPa 0,0 l/m 0,0 km/h (0 Bft) S-SW 202 0 min 0,000 mm 0,0 UV-I 0 W/m -0,9 C 4,3 C 0,0 km/h (0 Bft) 0,00 %
12.12.2014 21:30 4,2 C 71 % 1010,1 hPa 0,0 l/m 0,0 km/h (0 Bft) S 183 0 min 0,000 mm 0,0 UV-I 0 W/m -0,6 C 4,2 C 0,0 km/h (0 Bft) 0,00 %
12.12.2014 21:45 3,9 C 73 % 1009,9 hPa 0,0 l/m 0,0 km/h (0 Bft) SW 215 0 min 0,000 mm 0,0 UV-I 0 W/m -0,5 C 3,9 C 0,0 km/h (0 Bft) 0,00 %
12.12.2014 22:00 3,7 C 73 % 1009,9 hPa 0,0 l/m 0,0 km/h (0 Bft) SW 215 0 min 0,000 mm 0,0 UV-I 0 W/m -0,7 C 3,7 C 0,0 km/h (0 Bft) 0,00 %
12.12.2014 22:15 3,9 C 71 % 1010,0 hPa 0,0 l/m 0,0 km/h (0 Bft) SO 127 0 min 0,000 mm 0,0 UV-I 0 W/m -0,9 C 3,9 C 0,0 km/h (0 Bft) 0,00 %
12.12.2014 22:30 3,9 C 71 % 1009,3 hPa 0,0 l/m 0,0 km/h (0 Bft) SO 127 0 min 0,000 mm 0,0 UV-I 0 W/m -0,9 C 3,9 C 0,0 km/h (0 Bft) 0,00 %
12.12.2014 22:45 3,7 C 73 % 1009,1 hPa 0,0 l/m 0,0 km/h (0 Bft) S 188 0 min 0,000 mm 0,0 UV-I 0 W/m -0,7 C 3,7 C 0,0 km/h (0 Bft) 0,00 %
12.12.2014 23:00 4,0 C 70 % 1009,9 hPa 0,0 l/m 0,0 km/h (0 Bft) W 265 0 min 0,000 mm 0,0 UV-I 0 W/m -1,0 C 4,0 C 0,0 km/h (0 Bft) 0,00 %
12.12.2014 23:15 3,9 C 72 % 1009,9 hPa 0,0 l/m 0,0 km/h (0 Bft) S 186 0 min 0,000 mm 0,0 UV-I 0 W/m -0,7 C 3,9 C 0,0 km/h (0 Bft) 0,00 %
12.12.2014 23:30 3,6 C 74 % 1010,3 hPa 0,0 l/m 0,0 km/h (0 Bft) W-NW 282 0 min 0,000 mm 0,0 UV-I 0 W/m -0,6 C 3,6 C 0,0 km/h (0 Bft) 0,00 %
_ Min-Zeit 17:15 10:15 14:45 - 03:45 - - - - - - 09:00 02:00 03:45 00:00
Minimum _ 3,4 C 45 % 1008,2 hPa - 0,0 km/h (0 Bft) - - - - - - -3,5 C 2,1 C 0,0 km/h (0 Bft) 0,00 %
_ Max-Zeit 09:45 23:30 03:00 00:00 02:00 - - 15:30 00:00 08:30 10:15 21:45 09:45 02:00 00:00
Maximum _ 8,9 C 74 % 1016,2 hPa 0,0 l/m 13,3 km/h
S-SW (3 Bft)
- - 15 min 0,000 mm 1,0 UV-I 100 W/m -0,5 C 8,9 C 19,8 km/h
S-SW (3 Bft)
0,00 %
Durchschnitt _ 5,7 C 60 % 1012,0 hPa #0,0 l/m 1,1 km/h (1 Bft) W-SW - #30 min. #0,000 mm 1,0 UV-I 63 W/m -1,6 C 5,6 C 2,1 km/h (1 Bft) 0,00 %